createdAt,value
2023-04-02T00:00:05.978Z,1.40
2023-04-02T00:02:48.026Z,1.52
2023-04-02T00:05:56.162Z,1.80
2023-04-02T00:08:30.136Z,1.25
2023-04-02T00:11:00.400Z,1.55
2023-04-02T00:13:34.941Z,1.50
2023-04-02T00:16:04.539Z,1.40
2023-04-02T00:18:34.007Z,1.13
2023-04-02T00:21:11.038Z,1.45
2023-04-02T00:23:41.844Z,1.73
2023-04-02T00:26:26.677Z,1.40
2023-04-02T00:28:54.331Z,1.50
2023-04-02T00:31:23.202Z,1.10
2023-04-02T00:33:51.281Z,1.60
2023-04-02T00:36:22.506Z,1.80
2023-04-02T00:38:50.729Z,1.67
2023-04-02T00:41:24.834Z,1.50
2023-04-02T00:43:54.553Z,2.20
2023-04-02T00:46:26.587Z,1.98
2023-04-02T00:49:00.507Z,1.63
2023-04-02T00:51:35.878Z,1.30
2023-04-02T00:54:07.058Z,1.00
2023-04-02T00:56:40.177Z,1.23
2023-04-02T00:59:20.340Z,1.38
2023-04-02T01:01:54.406Z,1.30
2023-04-02T01:04:35.054Z,1.48
2023-04-02T01:07:08.642Z,1.35
2023-04-02T01:09:49.340Z,1.50
2023-04-02T01:12:30.232Z,1.40
2023-04-02T01:15:06.233Z,1.27
2023-04-02T01:17:48.967Z,1.27
2023-04-02T01:21:06.107Z,1.00
2023-04-02T01:23:42.524Z,1.00
2023-04-02T01:26:18.796Z,0.95
2023-04-02T01:28:58.813Z,1.23
2023-04-02T01:31:27.423Z,1.20
2023-04-02T01:33:56.285Z,1.00
2023-04-02T01:36:32.070Z,1.23
2023-04-02T01:39:06.761Z,0.98
2023-04-02T01:41:40.749Z,1.25
2023-04-02T01:44:13.240Z,1.08
2023-04-02T01:46:43.060Z,1.08
2023-04-02T01:49:14.710Z,1.23
2023-04-02T01:51:45.767Z,1.25
2023-04-02T01:54:18.301Z,1.38
2023-04-02T01:56:47.725Z,1.13
2023-04-02T01:59:20.065Z,1.00
2023-04-02T02:01:55.413Z,1.00
2023-04-02T02:04:23.126Z,1.10
2023-04-02T02:06:51.380Z,1.30
2023-04-02T02:09:24.604Z,1.27
2023-04-02T02:11:52.755Z,1.60
2023-04-02T02:14:24.669Z,1.08
2023-04-02T02:16:56.581Z,0.80
2023-04-02T02:19:29.466Z,1.20
2023-04-02T02:22:02.940Z,2.20
2023-04-02T02:24:33.246Z,1.35
2023-04-02T02:27:11.833Z,1.15
2023-04-02T02:29:43.727Z,1.17
2023-04-02T02:32:13.094Z,1.30
2023-04-02T02:34:47.033Z,0.90
2023-04-02T02:37:18.932Z,1.35
2023-04-02T02:39:52.504Z,1.17
2023-04-02T02:42:27.693Z,0.93
2023-04-02T02:44:58.344Z,1.55
2023-04-02T02:47:28.921Z,1.17
2023-04-02T02:50:02.605Z,1.10
2023-04-02T02:52:33.650Z,1.10
2023-04-02T02:55:09.084Z,1.10
2023-04-02T02:58:04.447Z,1.27
2023-04-02T03:00:39.321Z,1.00
2023-04-02T03:03:10.672Z,1.30
2023-04-02T03:05:40.395Z,1.33
2023-04-02T03:08:20.336Z,0.90
2023-04-02T03:10:54.655Z,1.30
2023-04-02T03:13:25.624Z,1.15
2023-04-02T03:16:03.215Z,1.20
2023-04-02T03:18:39.125Z,0.80
2023-04-02T03:21:18.319Z,1.45
2023-04-02T03:23:50.945Z,1.02
2023-04-02T03:26:21.239Z,1.15
2023-04-02T03:28:53.134Z,1.20
2023-04-02T03:31:27.347Z,1.15
2023-04-02T03:33:59.261Z,1.00
2023-04-02T03:36:32.745Z,1.27
2023-04-02T03:39:09.960Z,1.05
2023-04-02T03:41:44.974Z,1.75
2023-04-02T03:44:24.839Z,1.00
2023-04-02T03:46:58.184Z,1.38
2023-04-02T03:49:34.085Z,1.25
2023-04-02T03:52:06.391Z,1.60
2023-04-02T03:54:35.741Z,0.90
2023-04-02T03:57:03.892Z,1.30
2023-04-02T03:59:39.599Z,1.23
2023-04-02T04:02:19.523Z,1.10
2023-04-02T04:04:49.672Z,1.08
2023-04-02T04:07:23.504Z,1.05
2023-04-02T04:09:53.516Z,1.25
2023-04-02T04:12:29.552Z,1.33
2023-04-02T04:15:04.434Z,1.10
2023-04-02T04:17:51.401Z,0.93
2023-04-02T04:20:25.000Z,0.68
2023-04-02T04:22:55.822Z,0.77
2023-04-02T04:25:30.660Z,0.82
2023-04-02T04:28:11.245Z,1.10
2023-04-02T04:30:50.947Z,1.13
2023-04-02T04:33:25.395Z,1.35
2023-04-02T04:36:00.195Z,1.10
2023-04-02T04:38:39.217Z,1.17
2023-04-02T04:41:15.026Z,0.98
2023-04-02T04:43:50.994Z,1.05
2023-04-02T04:46:25.357Z,1.08
2023-04-02T04:48:59.008Z,0.90
2023-04-02T04:51:34.500Z,0.90
2023-04-02T04:54:02.546Z,1.08
2023-04-02T04:56:33.845Z,1.10
2023-04-02T04:59:18.785Z,0.90
2023-04-02T05:01:54.043Z,0.82
2023-04-02T05:04:29.956Z,0.90
2023-04-02T05:07:04.256Z,0.95
2023-04-02T05:09:36.947Z,0.70
2023-04-02T05:12:11.795Z,1.00
2023-04-02T05:14:44.358Z,1.20
2023-04-02T05:17:20.624Z,1.08
2023-04-02T05:19:54.222Z,1.20
2023-04-02T05:22:29.457Z,0.68
2023-04-02T05:25:08.198Z,0.82
2023-04-02T05:27:42.771Z,0.70
2023-04-02T05:30:32.667Z,0.90
2023-04-02T05:33:05.192Z,0.75
2023-04-02T05:35:37.124Z,0.68
2023-04-02T05:38:06.552Z,1.27
2023-04-02T05:40:38.984Z,0.85
2023-04-02T05:43:10.958Z,0.90
2023-04-02T05:45:46.847Z,0.80
2023-04-02T05:48:18.426Z,1.02
2023-04-02T05:50:51.503Z,0.95
2023-04-02T05:53:29.897Z,0.85
2023-04-02T05:56:01.273Z,1.10
2023-04-02T05:58:36.999Z,0.93
2023-04-02T06:01:29.327Z,0.90
2023-04-02T06:04:07.261Z,0.88
2023-04-02T06:06:49.952Z,0.55
2023-04-02T06:09:23.058Z,1.13
2023-04-02T06:11:56.934Z,1.13
2023-04-02T06:14:25.165Z,1.02
2023-04-02T06:16:53.045Z,1.55
2023-04-02T06:19:24.689Z,1.10
2023-04-02T06:21:58.949Z,0.77
2023-04-02T06:24:30.121Z,1.13
2023-04-02T06:27:03.376Z,1.27
2023-04-02T06:29:39.380Z,1.00
2023-04-02T06:32:11.447Z,0.77
2023-04-02T06:34:43.514Z,2.55
2023-04-02T06:37:22.183Z,1.27
2023-04-02T06:39:54.146Z,0.93
2023-04-02T06:42:25.924Z,1.63
2023-04-02T06:45:18.494Z,1.20
2023-04-02T06:47:53.079Z,1.40
2023-04-02T06:50:31.208Z,1.00
2023-04-02T06:53:06.408Z,1.35
2023-04-02T06:55:43.619Z,1.00
2023-04-02T06:58:11.641Z,1.52
2023-04-02T07:00:42.218Z,1.00
2023-04-02T07:03:16.572Z,0.98
2023-04-02T07:05:44.570Z,0.70
2023-04-02T07:08:13.661Z,0.82
2023-04-02T07:10:41.384Z,0.80
2023-04-02T07:13:10.722Z,0.60
2023-04-02T07:15:38.605Z,1.75
2023-04-02T07:18:06.704Z,0.90
2023-04-02T07:20:37.490Z,0.63
2023-04-02T07:23:08.296Z,0.75
2023-04-02T07:25:37.464Z,1.15
2023-04-02T07:28:06.175Z,0.88
2023-04-02T07:30:33.797Z,1.00
2023-04-02T07:33:01.729Z,1.20
2023-04-02T07:35:30.340Z,0.70
2023-04-02T07:37:57.935Z,1.45
2023-04-02T07:40:25.733Z,0.90
2023-04-02T07:42:54.673Z,0.80
2023-04-02T07:45:22.308Z,0.70
2023-04-02T07:47:49.921Z,0.75
2023-04-02T07:50:17.973Z,0.98
2023-04-02T07:52:45.799Z,1.00
2023-04-02T07:55:15.504Z,0.90
2023-04-02T07:57:51.037Z,0.80
2023-04-02T08:00:21.574Z,0.70
2023-04-02T08:02:49.805Z,1.02
2023-04-02T08:05:18.046Z,1.13
2023-04-02T08:07:52.785Z,0.70
2023-04-02T08:10:20.633Z,0.85
2023-04-02T08:12:48.414Z,0.82
2023-04-02T08:15:16.891Z,0.60
2023-04-02T08:17:46.449Z,0.50
2023-04-02T08:20:18.056Z,0.75
2023-04-02T08:22:46.044Z,0.60
2023-04-02T08:25:14.012Z,0.90
2023-04-02T08:27:42.104Z,0.80
2023-04-02T08:30:12.529Z,0.68
2023-04-02T08:32:41.512Z,0.70
2023-04-02T08:35:12.102Z,1.02
2023-04-02T08:37:40.082Z,1.17
2023-04-02T08:40:14.594Z,0.65
2023-04-02T08:42:47.976Z,0.70
2023-04-02T08:45:38.344Z,0.85
2023-04-02T08:48:06.976Z,0.85
2023-04-02T08:50:37.398Z,0.50
2023-04-02T08:53:08.835Z,0.82
2023-04-02T08:55:42.669Z,0.55
2023-04-02T08:58:19.183Z,0.43
2023-04-02T09:00:51.576Z,0.68
2023-04-02T09:03:22.411Z,0.55
2023-04-02T09:05:52.989Z,0.70
2023-04-02T09:08:24.518Z,0.50
2023-04-02T09:10:56.188Z,0.77
2023-04-02T09:13:25.888Z,0.85
2023-04-02T09:15:58.724Z,1.65
2023-04-02T09:18:31.157Z,0.77
2023-04-02T09:21:03.458Z,0.80
2023-04-02T09:23:31.199Z,0.60
2023-04-02T09:26:04.655Z,0.80
2023-04-02T09:28:32.843Z,0.93
2023-04-02T09:31:07.075Z,0.82
2023-04-02T09:33:42.650Z,0.90
2023-04-02T09:36:26.153Z,0.93
2023-04-02T09:39:01.525Z,1.38
2023-04-02T09:41:30.916Z,0.75
2023-04-02T09:44:13.503Z,0.90
2023-04-02T09:46:49.244Z,0.90
2023-04-02T09:49:18.863Z,0.60
2023-04-02T09:52:10.460Z,1.08
2023-04-02T09:54:42.777Z,0.77
2023-04-02T09:57:23.572Z,0.70
2023-04-02T10:00:30.663Z,0.90
2023-04-02T10:03:06.807Z,1.02
2023-04-02T10:08:19.715Z,0.77
2023-04-02T10:10:50.747Z,0.75
2023-04-02T10:13:26.215Z,1.35
2023-04-02T10:15:58.624Z,0.80
2023-04-02T10:18:37.181Z,1.13
2023-04-02T10:21:06.568Z,1.60
2023-04-02T10:23:35.860Z,0.75
2023-04-02T10:26:25.930Z,0.63
2023-04-02T10:29:14.106Z,0.82
2023-04-02T10:31:51.251Z,1.25
2023-04-02T10:34:24.557Z,0.88
2023-04-02T10:36:55.633Z,0.77
2023-04-02T10:39:29.585Z,0.70
2023-04-02T10:42:05.341Z,0.90
2023-04-02T10:44:51.266Z,1.15
2023-04-02T10:47:34.823Z,0.75
2023-04-02T10:50:15.055Z,1.15
2023-04-02T10:52:50.211Z,0.70
2023-04-02T10:55:23.056Z,0.70
2023-04-02T10:57:52.934Z,1.00
2023-04-02T11:00:25.537Z,0.80
2023-04-02T11:02:57.814Z,0.70
2023-04-02T11:05:37.138Z,0.65
2023-04-02T11:08:08.330Z,0.50
2023-04-02T11:10:41.227Z,1.10
2023-04-02T11:13:16.428Z,0.75
2023-04-02T11:15:44.135Z,0.60
2023-04-02T11:18:24.511Z,0.73
2023-04-02T11:21:03.183Z,0.60
2023-04-02T11:23:33.872Z,0.70
2023-04-02T11:26:41.048Z,0.88
2023-04-02T11:29:22.597Z,0.77
2023-04-02T11:31:52.436Z,0.70
2023-04-02T11:35:05.956Z,0.80
2023-04-02T11:37:38.200Z,0.60
2023-04-02T11:40:52.950Z,0.40
2023-04-02T11:43:52.504Z,0.70
2023-04-02T11:46:39.886Z,0.90
2023-04-02T11:49:40.364Z,0.45
2023-04-02T11:52:23.148Z,0.70
2023-04-02T11:55:03.561Z,0.65
2023-04-02T11:58:16.144Z,0.70
2023-04-02T12:01:00.641Z,0.70
2023-04-02T12:03:43.119Z,0.95
2023-04-02T12:06:19.243Z,0.77
2023-04-02T12:08:57.908Z,1.30
2023-04-02T12:11:34.434Z,0.77
2023-04-02T12:14:02.574Z,0.80
2023-04-02T12:16:34.495Z,0.70
2023-04-02T12:19:02.424Z,0.70
2023-04-02T12:21:30.807Z,0.80
2023-04-02T12:24:00.406Z,0.90
2023-04-02T12:26:37.036Z,0.80
2023-04-02T12:29:26.060Z,1.00
2023-04-02T12:31:56.620Z,1.13
2023-04-02T12:34:26.674Z,1.45
2023-04-02T12:36:56.698Z,0.93
2023-04-02T12:39:27.329Z,0.93
2023-04-02T12:41:56.471Z,0.60
2023-04-02T12:44:27.124Z,0.63
2023-04-02T12:46:57.272Z,0.80
2023-04-02T12:49:34.443Z,0.75
2023-04-02T12:52:04.710Z,0.75
2023-04-02T12:54:37.751Z,0.55
2023-04-02T12:57:38.977Z,0.60
2023-04-02T13:00:32.062Z,0.82
2023-04-02T13:03:14.394Z,0.68
2023-04-02T13:05:46.245Z,0.68
2023-04-02T13:08:18.721Z,0.65
2023-04-02T13:10:46.970Z,0.80
2023-04-02T13:13:21.571Z,0.70
2023-04-02T13:16:02.740Z,1.08
2023-04-02T13:18:32.106Z,0.80
2023-04-02T13:21:00.052Z,1.27
2023-04-02T13:23:37.280Z,0.93
2023-04-02T13:26:16.398Z,0.70
2023-04-02T13:28:44.417Z,0.60
2023-04-02T13:31:16.949Z,0.70
2023-04-02T13:33:45.978Z,0.90
2023-04-02T13:36:14.301Z,0.75
2023-04-02T13:38:42.308Z,0.80
2023-04-02T13:41:21.320Z,0.80
2023-04-02T13:43:49.617Z,0.73
2023-04-02T13:46:22.220Z,0.85
2023-04-02T13:48:52.178Z,0.80
2023-04-02T13:51:22.103Z,0.95
2023-04-02T13:53:53.837Z,0.93
2023-04-02T13:56:22.888Z,1.50
2023-04-02T13:58:51.229Z,0.80
2023-04-02T14:01:19.438Z,0.98
2023-04-02T14:03:47.660Z,0.80
2023-04-02T14:06:27.061Z,1.20
2023-04-02T14:09:03.815Z,0.70
2023-04-02T14:11:46.244Z,1.65
2023-04-02T14:14:27.493Z,0.90
2023-04-02T14:17:06.038Z,1.27
2023-04-02T14:19:54.360Z,1.00
2023-04-02T14:22:35.122Z,1.90
2023-04-02T14:25:10.742Z,0.93
2023-04-02T14:27:45.450Z,1.60
2023-04-02T14:30:18.792Z,0.80
2023-04-02T14:32:56.713Z,0.95
2023-04-02T14:35:34.746Z,0.90
2023-04-02T14:38:11.482Z,1.13
2023-04-02T14:40:46.259Z,3.22
2023-04-02T14:43:21.246Z,1.90
2023-04-02T14:46:00.811Z,1.30
2023-04-02T14:48:38.319Z,1.10
2023-04-02T14:51:11.400Z,1.13
2023-04-02T14:53:52.529Z,1.42
2023-04-02T14:56:22.742Z,1.35
2023-04-02T14:58:55.611Z,1.35
2023-04-02T15:01:28.406Z,0.80
2023-04-02T15:04:03.020Z,1.02
2023-04-02T15:06:37.488Z,2.03
2023-04-02T15:09:13.170Z,2.00
2023-04-02T15:11:47.624Z,1.20
2023-04-02T15:14:19.448Z,1.20
2023-04-02T15:16:47.133Z,1.35
2023-04-02T15:19:16.449Z,1.30
2023-04-02T15:22:07.539Z,0.98
2023-04-02T15:24:49.049Z,1.23
2023-04-02T15:27:28.029Z,1.27
2023-04-02T15:30:00.772Z,1.20
2023-04-02T15:32:36.218Z,1.17
2023-04-02T15:35:20.452Z,1.00
2023-04-02T15:37:59.294Z,0.80
2023-04-02T15:40:47.658Z,1.45
2023-04-02T15:43:22.934Z,1.30
2023-04-02T15:45:59.023Z,1.33
2023-04-02T15:48:39.954Z,1.40
2023-04-02T15:51:32.817Z,1.13
2023-04-02T15:54:10.326Z,1.27
2023-04-02T15:56:49.623Z,1.23
2023-04-02T15:59:38.106Z,1.10
2023-04-02T16:02:28.373Z,1.67
2023-04-02T16:05:04.653Z,1.20
2023-04-02T16:07:55.728Z,1.15
2023-04-02T16:10:40.042Z,0.88
2023-04-02T16:13:16.579Z,1.50
2023-04-02T16:15:48.839Z,1.30
2023-04-02T16:18:21.971Z,1.27
2023-04-02T16:20:52.601Z,2.05
2023-04-02T16:23:27.076Z,1.40
2023-04-02T16:26:01.897Z,0.90
2023-04-02T16:28:37.178Z,0.95
2023-04-02T16:31:09.593Z,1.40
2023-04-02T16:34:02.534Z,1.50
2023-04-02T16:36:44.096Z,1.20
2023-04-02T16:39:22.276Z,0.82
2023-04-02T16:42:01.822Z,1.00
2023-04-02T16:44:44.159Z,1.13
2023-04-02T16:47:28.880Z,0.93
2023-04-02T16:50:00.813Z,1.20
2023-04-02T16:52:41.650Z,1.30
2023-04-02T16:55:24.237Z,1.08
2023-04-02T16:58:02.246Z,1.17
2023-04-02T17:00:39.190Z,1.13
2023-04-02T17:03:21.677Z,0.98
2023-04-02T17:05:56.674Z,0.90
2023-04-02T17:08:25.893Z,1.00
2023-04-02T17:10:58.676Z,0.75
2023-04-02T17:13:29.949Z,1.08
2023-04-02T17:16:06.933Z,0.90
2023-04-02T17:18:34.988Z,1.35
2023-04-02T17:21:06.159Z,1.63
2023-04-02T17:23:55.198Z,1.42
2023-04-02T17:26:27.122Z,1.35
2023-04-02T17:28:55.910Z,1.50
2023-04-02T17:31:26.655Z,1.05
2023-04-02T17:33:54.348Z,3.53
2023-04-02T17:36:32.905Z,1.30
2023-04-02T17:39:11.653Z,1.63
2023-04-02T17:41:44.638Z,1.65
2023-04-02T17:44:29.412Z,1.75
2023-04-02T17:47:04.224Z,1.13
2023-04-02T17:49:41.141Z,1.25
2023-04-02T17:52:16.926Z,1.05
2023-04-02T17:54:54.664Z,1.35
2023-04-02T17:57:35.186Z,1.38
2023-04-02T18:00:20.057Z,1.08
2023-04-02T18:03:04.877Z,0.93
2023-04-02T18:05:48.437Z,0.95
2023-04-02T18:08:27.653Z,1.00
2023-04-02T18:11:08.044Z,0.80
2023-04-02T18:13:37.267Z,1.02
2023-04-02T18:16:30.933Z,0.90
2023-04-02T18:19:15.757Z,1.13
2023-04-02T18:21:50.780Z,0.85
2023-04-02T18:24:36.632Z,1.40
2023-04-02T18:27:19.527Z,1.30
2023-04-02T18:29:55.426Z,1.10
2023-04-02T18:32:39.863Z,1.33
2023-04-02T18:35:17.836Z,1.10
2023-04-02T18:37:59.229Z,1.45
2023-04-02T18:40:40.724Z,1.13
2023-04-02T18:43:20.331Z,1.10
2023-04-02T18:45:56.248Z,1.10
2023-04-02T18:48:40.761Z,1.08
2023-04-02T18:51:14.773Z,1.48
2023-04-02T18:53:44.239Z,1.00
2023-04-02T18:56:15.132Z,1.25
2023-04-02T18:58:51.634Z,0.90
2023-04-02T19:01:28.630Z,1.20
2023-04-02T19:04:03.646Z,1.80
2023-04-02T19:06:37.911Z,1.38
2023-04-02T19:09:12.758Z,1.30
2023-04-02T19:11:40.438Z,1.35
2023-04-02T19:14:12.679Z,1.00
2023-04-02T19:17:02.579Z,1.00
2023-04-02T19:19:35.724Z,1.02
2023-04-02T19:22:17.775Z,0.90
2023-04-02T19:25:28.792Z,1.10
2023-04-02T19:28:08.888Z,1.00
2023-04-02T19:30:53.869Z,1.25
2023-04-02T19:33:34.700Z,1.33
2023-04-02T19:36:10.059Z,1.17
2023-04-02T19:38:51.030Z,1.02
2023-04-02T19:41:28.201Z,1.58
2023-04-02T19:43:56.662Z,1.88
2023-04-02T19:46:26.335Z,1.10
2023-04-02T19:49:03.193Z,1.25
2023-04-02T19:51:31.074Z,1.60
2023-04-02T19:54:00.262Z,1.30
2023-04-02T19:56:28.148Z,1.23
2023-04-02T19:58:56.831Z,1.30
2023-04-02T20:01:26.148Z,1.00
2023-04-02T20:03:53.989Z,1.10
2023-04-02T20:06:22.354Z,1.42
2023-04-02T20:08:50.038Z,1.58
2023-04-02T20:11:19.068Z,1.60
2023-04-02T20:13:46.633Z,1.95
2023-04-02T20:16:14.504Z,1.48
2023-04-02T20:18:42.192Z,1.40
2023-04-02T20:21:10.528Z,1.58
2023-04-02T20:23:38.259Z,1.40
2023-04-02T20:26:07.008Z,1.80
2023-04-02T20:28:36.450Z,2.20
2023-04-02T20:31:09.338Z,1.58
2023-04-02T20:33:37.438Z,2.17
2023-04-02T20:36:07.872Z,2.20
2023-04-02T20:38:37.032Z,2.17
2023-04-02T20:41:07.079Z,1.50
2023-04-02T20:43:37.498Z,2.13
2023-04-02T20:46:10.050Z,1.95
2023-04-02T20:48:39.197Z,2.00
2023-04-02T20:51:09.382Z,2.05
2023-04-02T20:53:38.060Z,2.10
2023-04-02T20:56:07.368Z,1.70
2023-04-02T20:58:37.383Z,1.85
2023-04-02T21:01:09.849Z,2.00
2023-04-02T21:03:39.828Z,2.25
2023-04-02T21:06:12.745Z,2.38
2023-04-02T21:08:40.447Z,1.63
2023-04-02T21:11:08.723Z,2.63
2023-04-02T21:13:38.422Z,2.03
2023-04-02T21:16:12.941Z,2.40
2023-04-02T21:18:40.622Z,2.17
2023-04-02T21:21:08.549Z,2.33
2023-04-02T21:23:36.177Z,2.50
2023-04-02T21:26:06.832Z,2.15
2023-04-02T21:28:36.619Z,2.22
2023-04-02T21:31:06.077Z,2.00
2023-04-02T21:33:38.305Z,2.35
2023-04-02T21:36:07.176Z,2.45
2023-04-02T21:38:34.852Z,2.38
2023-04-02T21:41:13.716Z,2.83
2023-04-02T21:43:42.966Z,2.85
2023-04-02T21:46:11.070Z,2.03
2023-04-02T21:48:40.549Z,2.13
2023-04-02T21:51:10.876Z,1.90
2023-04-02T21:53:39.631Z,2.15
2023-04-02T21:56:09.690Z,2.28
2023-04-02T21:58:37.484Z,1.90
2023-04-02T22:01:11.372Z,1.80
2023-04-02T22:03:45.666Z,1.80
2023-04-02T22:06:15.730Z,2.17
2023-04-02T22:08:45.262Z,2.05
2023-04-02T22:11:14.301Z,2.60
2023-04-02T22:13:43.225Z,2.58
2023-04-02T22:16:14.831Z,1.92
2023-04-02T22:18:43.147Z,3.42
2023-04-02T22:21:11.728Z,2.95
2023-04-02T22:23:40.253Z,2.70
2023-04-02T22:26:09.564Z,2.75
2023-04-02T22:28:37.706Z,2.90
2023-04-02T22:31:07.143Z,2.72
2023-04-02T22:33:37.089Z,2.40
2023-04-02T22:36:05.179Z,3.28
2023-04-02T22:38:33.838Z,2.55
2023-04-02T22:41:06.652Z,1.73
2023-04-02T22:43:34.430Z,1.90
2023-04-02T22:46:02.118Z,1.73
2023-04-02T22:48:29.812Z,1.75
2023-04-02T22:50:59.020Z,1.73
2023-04-02T22:53:26.980Z,1.95
2023-04-02T22:55:54.936Z,2.15
2023-04-02T22:58:22.659Z,2.47
2023-04-02T23:00:50.457Z,1.70
2023-04-02T23:03:18.041Z,1.77
2023-04-02T23:05:47.019Z,2.47
2023-04-02T23:08:16.026Z,1.50
2023-04-02T23:10:43.619Z,1.85
2023-04-02T23:13:11.605Z,2.25
2023-04-02T23:15:39.234Z,1.90
2023-04-02T23:18:07.115Z,2.03
2023-04-02T23:20:35.033Z,1.92
2023-04-02T23:23:02.839Z,1.90
2023-04-02T23:25:31.758Z,2.03
2023-04-02T23:27:59.468Z,2.00
2023-04-02T23:30:27.077Z,1.80
2023-04-02T23:32:54.761Z,2.05
2023-04-02T23:35:22.571Z,2.05
2023-04-02T23:37:50.668Z,2.22
2023-04-02T23:40:18.606Z,2.22
2023-04-02T23:42:47.629Z,2.10
2023-04-02T23:45:16.072Z,1.85
2023-04-02T23:47:43.786Z,2.03
2023-04-02T23:50:11.901Z,2.13
2023-04-02T23:52:39.477Z,1.42
2023-04-02T23:55:07.561Z,1.88
2023-04-02T23:57:35.188Z,2.00
